Time;durP1;ratioP1;P1;durP2;ratioP2;P2;SDS_P1;SDS_P2;PMS_P1;PMS_P2;Temp;Humidity;BMP_temperature;BMP_pressure;BME280_temperature;BME280_humidity;BME280_pressure;Samples;Min_cycle;Max_cycle;Signal;HPM_P1;HPM_P2
2021/12/15 00:02:02;;;;;;;71.40;32.83;;;10.10;99.90;;;;;;5109217;28;20094;-68
2021/12/15 00:04:29;;;;;;;76.13;33.17;;;10.10;99.90;;;;;;5105271;28;20089;-68
2021/12/15 00:06:55;;;;;;;72.10;33.08;;;10.10;99.90;;;;;;5105430;28;20041;-68
2021/12/15 00:09:21;;;;;;;74.07;32.22;;;10.10;99.90;;;;;;5103149;28;20052;-68
2021/12/15 00:11:47;;;;;;;73.38;33.15;;;10.10;99.90;;;;;;5102577;28;20070;-68
2021/12/15 00:14:16;;;;;;;79.30;33.90;;;10.10;99.90;;;;;;5104277;28;20048;-68
2021/12/15 00:16:43;;;;;;;67.15;33.03;;;10.20;99.90;;;;;;5105000;28;20050;-68
2021/12/15 00:19:09;;;;;;;66.68;33.00;;;10.10;99.90;;;;;;5104001;28;20063;-68
2021/12/15 00:21:36;;;;;;;73.07;33.00;;;10.10;99.90;;;;;;5103482;28;20062;-68
2021/12/15 00:24:03;;;;;;;69.10;34.25;;;10.20;99.90;;;;;;5103056;28;20138;-68
2021/12/15 00:26:29;;;;;;;62.40;33.92;;;10.10;99.90;;;;;;5109684;28;20044;-68
2021/12/15 00:28:56;;;;;;;84.80;34.88;;;10.20;99.90;;;;;;5107439;28;20048;-68
2021/12/15 00:31:22;;;;;;;63.42;33.30;;;10.10;99.90;;;;;;5103965;28;20055;-68
2021/12/15 00:33:49;;;;;;;66.72;33.20;;;10.10;99.90;;;;;;5104797;28;20040;-68
2021/12/15 00:36:15;;;;;;;67.68;34.72;;;10.10;99.90;;;;;;5101571;28;20058;-68
2021/12/15 00:38:41;;;;;;;71.10;35.47;;;10.00;99.90;;;;;;5105144;28;20044;-68
2021/12/15 00:41:07;;;;;;;67.28;34.83;;;10.10;99.90;;;;;;5103486;28;20153;-68
2021/12/15 00:43:35;;;;;;;65.45;33.78;;;10.20;99.90;;;;;;5099100;28;20040;-68
2021/12/15 00:46:01;;;;;;;72.90;34.75;;;10.20;99.90;;;;;;5101890;28;20052;-68
2021/12/15 00:48:28;;;;;;;65.07;33.40;;;10.20;99.90;;;;;;5103675;28;20048;-68
2021/12/15 00:50:54;;;;;;;66.05;33.30;;;10.20;99.90;;;;;;5098746;28;20045;-68
2021/12/15 00:53:20;;;;;;;64.18;33.30;;;10.20;99.90;;;;;;5102387;28;20070;-68
2021/12/15 00:55:46;;;;;;;62.00;32.70;;;10.10;99.90;;;;;;5102152;28;20040;-68
2021/12/15 00:58:12;;;;;;;66.25;33.15;;;10.20;99.90;;;;;;5102779;28;20079;-68
2021/12/15 01:00:44;;;;;;;65.45;32.50;;;10.20;99.90;;;;;;5103735;28;20036;-68
2021/12/15 01:03:10;;;;;;;63.42;33.17;;;10.20;99.90;;;;;;5103154;28;20044;-68
2021/12/15 01:05:41;;;;;;;66.38;32.47;;;10.10;99.90;;;;;;5097983;28;20113;-67
2021/12/15 01:08:10;;;;;;;67.85;32.22;;;10.20;99.90;;;;;;5104991;28;20040;-68
2021/12/15 01:21:52;;;;;;;64.43;32.38;;;10.20;99.90;;;;;;5019775;28;20049;-68
2021/12/15 01:24:18;;;;;;;63.97;29.75;;;10.20;99.90;;;;;;5002796;28;20085;-68
2021/12/15 01:26:44;;;;;;;74.20;32.05;;;10.20;99.90;;;;;;5020312;28;20053;-68
2021/12/15 01:29:10;;;;;;;62.97;32.28;;;10.20;99.90;;;;;;5005105;28;20077;-68
2021/12/15 01:31:36;;;;;;;61.10;32.22;;;10.20;99.90;;;;;;5019885;28;20061;-68
2021/12/15 01:34:03;;;;;;;58.05;30.65;;;10.10;99.90;;;;;;5015941;28;20042;-68
2021/12/15 01:36:29;;;;;;;67.57;34.13;;;10.20;99.90;;;;;;5018484;28;20050;-68
2021/12/15 01:38:54;;;;;;;66.55;31.70;;;10.20;99.90;;;;;;5004673;28;20069;-68
2021/12/15 01:41:24;;;;;;;61.10;30.55;;;10.20;99.90;;;;;;5011319;28;20081;-68
2021/12/15 01:46:59;;;;;;;60.22;28.00;;;10.20;99.90;;;;;;5019465;28;20439;-68
2021/12/15 01:49:33;;;;;;;62.85;30.75;;;10.30;99.90;;;;;;5029540;28;20114;-68
2021/12/15 01:52:25;;;;;;;60.38;29.15;;;10.30;99.90;;;;;;5104194;28;20051;-68
2021/12/15 01:55:16;;;;;;;61.63;28.27;;;10.30;99.90;;;;;;5100875;28;20048;-68
2021/12/15 01:57:42;;;;;;;63.22;30.50;;;10.30;99.90;;;;;;5094717;28;20047;-68
2021/12/15 02:00:19;;;;;;;58.63;29.92;;;10.30;99.90;;;;;;5107960;28;20063;-68
2021/12/15 02:02:45;;;;;;;65.22;30.02;;;10.30;99.90;;;;;;5104945;28;20063;-68
2021/12/15 02:05:11;;;;;;;59.58;27.88;;;10.40;99.90;;;;;;5103681;28;20453;-68
2021/12/15 02:07:39;;;;;;;56.50;28.48;;;10.30;99.90;;;;;;5102035;28;20044;-68
2021/12/15 02:10:06;;;;;;;60.25;28.85;;;10.30;99.90;;;;;;5105346;28;20426;-68
2021/12/15 02:12:37;;;;;;;54.10;27.05;;;10.30;99.90;;;;;;5101341;28;20040;-68
2021/12/15 02:15:12;;;;;;;58.40;30.10;;;10.20;99.90;;;;;;5106298;28;20040;-68
2021/12/15 02:17:39;;;;;;;56.92;27.70;;;10.30;99.90;;;;;;5105822;28;20044;-68
2021/12/15 02:20:09;;;;;;;60.70;28.75;;;10.30;99.90;;;;;;5108347;28;20044;-68
2021/12/15 02:22:35;;;;;;;60.20;30.08;;;10.30;99.90;;;;;;5101344;28;20104;-68
2021/12/15 02:25:02;;;;;;;62.85;29.48;;;10.30;99.90;;;;;;5106704;28;20068;-68
2021/12/15 02:27:33;;;;;;;62.92;29.58;;;10.30;99.90;;;;;;5104200;28;20048;-68
2021/12/15 02:30:15;;;;;;;63.35;29.67;;;10.30;99.90;;;;;;5121675;28;20055;-68
2021/12/15 02:33:37;;;;;;;62.55;29.70;;;10.30;99.90;;;;;;5127488;28;20102;-68
2021/12/15 02:38:25;;;;;;;62.88;29.42;;;10.30;99.90;;;;;;5127275;28;20530;-68
2021/12/15 02:40:51;;;;;;;63.65;30.27;;;10.30;99.90;;;;;;5110547;28;20044;-68
2021/12/15 02:43:17;;;;;;;60.95;28.63;;;10.20;99.90;;;;;;5107854;28;20051;-68
2021/12/15 02:45:43;;;;;;;66.70;30.70;;;10.30;99.90;;;;;;5126216;28;20043;-68
2021/12/15 02:48:08;;;;;;;65.13;30.33;;;10.30;99.90;;;;;;5107361;28;20088;-68
2021/12/15 02:50:36;;;;;;;64.97;29.48;;;10.20;99.90;;;;;;5107834;28;20101;-68
2021/12/15 02:53:04;;;;;;;56.97;28.52;;;10.20;99.90;;;;;;5107591;28;20040;-68
2021/12/15 02:55:30;;;;;;;61.20;28.92;;;10.30;99.90;;;;;;5107347;28;20107;-68
2021/12/15 02:57:56;;;;;;;60.53;29.42;;;10.30;99.90;;;;;;5107608;27;20335;-68
2021/12/15 03:00:27;;;;;;;57.50;28.13;;;10.30;99.90;;;;;;5126242;28;20388;-68
2021/12/15 03:05:52;;;;;;;52.22;26.65;;;10.40;99.90;;;;;;5108733;28;20092;-68
2021/12/15 03:08:29;;;;;;;53.90;27.10;;;10.30;99.90;;;;;;5124684;28;20040;-68
2021/12/15 03:16:25;;;;;;;55.08;28.73;;;10.40;99.90;;;;;;5110423;28;20058;-68
2021/12/15 03:18:51;;;;;;;55.97;28.50;;;10.40;99.90;;;;;;5107643;28;20044;-68
2021/12/15 03:21:22;;;;;;;57.65;28.33;;;10.30;99.90;;;;;;5107828;28;20046;-68
2021/12/15 03:23:56;;;;;;;57.72;27.73;;;10.40;99.90;;;;;;5109379;28;20475;-68
2021/12/15 03:26:38;;;;;;;60.08;28.73;;;10.40;99.90;;;;;;5104625;28;20040;-68
2021/12/15 03:34:49;;;;;;;69.35;29.45;;;10.30;99.90;;;;;;5107803;28;20127;-68
2021/12/15 03:39:47;;;;;;;61.58;29.30;;;10.40;99.90;;;;;;5107183;28;20070;-68
2021/12/15 03:42:18;;;;;;;62.33;29.55;;;10.40;99.90;;;;;;5106430;28;20043;-68
2021/12/15 03:44:45;;;;;;;67.22;32.22;;;10.30;99.90;;;;;;5125102;28;20048;-68
2021/12/15 03:47:15;;;;;;;63.00;30.42;;;10.30;99.90;;;;;;5106762;28;20104;-68
2021/12/15 03:49:41;;;;;;;66.35;29.60;;;10.30;99.90;;;;;;5125522;28;20050;-68
2021/12/15 03:52:08;;;;;;;74.15;33.53;;;10.30;99.90;;;;;;5124429;28;20083;-68
2021/12/15 03:54:35;;;;;;;68.07;31.42;;;10.30;99.90;;;;;;5124771;28;20408;-68
2021/12/15 03:57:01;;;;;;;71.28;31.67;;;10.30;99.90;;;;;;5124514;28;20044;-68
2021/12/15 03:59:28;;;;;;;63.13;29.58;;;10.30;99.90;;;;;;5124480;28;20062;-68
2021/12/15 04:01:55;;;;;;;65.32;30.83;;;10.30;99.90;;;;;;5125007;28;22979;-68
2021/12/15 04:04:21;;;;;;;68.32;30.77;;;10.40;99.90;;;;;;5104112;28;20050;-68
2021/12/15 04:06:46;;;;;;;72.38;31.23;;;10.30;99.90;;;;;;5120150;28;20062;-68
2021/12/15 04:09:14;;;;;;;67.57;30.02;;;10.30;99.90;;;;;;5124683;28;20036;-68
2021/12/15 04:11:41;;;;;;;73.25;31.88;;;10.30;99.90;;;;;;5124448;28;20051;-68
2021/12/15 04:14:11;;;;;;;72.93;34.40;;;10.30;99.90;;;;;;5123643;28;20058;-68
2021/12/15 04:16:45;;;;;;;67.63;31.73;;;10.30;99.90;;;;;;5106126;28;20106;-68
2021/12/15 04:19:15;;;;;;;69.63;32.42;;;10.30;99.90;;;;;;5122832;27;20075;-68
2021/12/15 04:21:41;;;;;;;74.30;34.35;;;10.30;99.90;;;;;;5123191;28;20067;-68
2021/12/15 04:24:09;;;;;;;74.18;35.38;;;10.20;99.90;;;;;;5106487;28;20050;-68
2021/12/15 04:26:35;;;;;;;73.03;34.30;;;10.30;99.90;;;;;;5124774;28;20127;-68
2021/12/15 04:29:03;;;;;;;73.28;35.40;;;10.30;99.90;;;;;;5124564;28;20047;-68
2021/12/15 04:31:32;;;;;;;77.50;34.38;;;10.30;99.90;;;;;;5105867;28;20062;-68
2021/12/15 04:34:05;;;;;;;72.25;34.70;;;10.30;99.90;;;;;;5120917;28;20089;-68
2021/12/15 04:36:35;;;;;;;78.85;35.75;;;10.30;99.90;;;;;;5108723;28;20173;-68
2021/12/15 04:39:02;;;;;;;;;;;10.30;99.90;;;;;;5124913;28;20040;-68
2021/12/15 04:41:29;;;;;;;76.30;35.30;;;10.20;99.90;;;;;;5091763;28;19919;-68
2021/12/15 04:43:57;;;;;;;78.00;36.00;;;10.30;99.90;;;;;;5106989;28;20052;-68
2021/12/15 04:46:28;;;;;;;74.90;38.40;;;10.20;99.90;;;;;;5123940;28;20099;-68
2021/12/15 04:48:53;;;;;;;78.00;37.85;;;10.20;99.90;;;;;;5107360;28;20047;-68
2021/12/15 04:51:20;;;;;;;79.20;36.42;;;10.30;99.90;;;;;;5125436;28;20039;-68
2021/12/15 04:53:47;;;;;;;77.88;35.75;;;10.30;99.90;;;;;;5105477;28;20203;-68
2021/12/15 04:56:13;;;;;;;79.47;36.80;;;10.20;99.90;;;;;;5124118;28;20035;-68
2021/12/15 04:58:39;;;;;;;81.60;39.08;;;10.20;99.90;;;;;;5126461;28;20601;-68
2021/12/15 05:01:08;;;;;;;77.80;36.55;;;10.20;99.90;;;;;;5123947;28;20044;-68
2021/12/15 05:03:35;;;;;;;86.60;38.60;;;10.10;99.90;;;;;;5127964;28;20099;-68
2021/12/15 05:06:01;;;;;;;75.90;36.08;;;10.20;99.90;;;;;;5106788;28;20077;-68
2021/12/15 05:08:27;;;;;;;77.88;35.88;;;10.30;99.90;;;;;;5123353;28;20131;-68
2021/12/15 05:10:55;;;;;;;75.70;37.95;;;10.20;99.90;;;;;;5117710;28;20052;-68
2021/12/15 05:13:22;;;;;;;78.40;37.40;;;10.20;99.90;;;;;;5106905;28;20047;-68
2021/12/15 05:15:47;;;;;;;79.60;39.20;;;10.20;99.90;;;;;;5092688;28;20055;-68
2021/12/15 05:18:13;;;;;;;75.22;37.05;;;10.20;99.90;;;;;;5105111;28;20108;-68
2021/12/15 05:20:40;;;;;;;80.25;38.20;;;10.20;99.90;;;;;;5105734;28;20083;-68
2021/12/15 05:23:07;;;;;;;78.40;38.13;;;10.20;99.90;;;;;;5104535;28;20178;-68
2021/12/15 05:25:34;;;;;;;75.88;37.42;;;10.30;99.90;;;;;;5124804;28;20055;-68
2021/12/15 05:28:00;;;;;;;83.32;37.60;;;10.30;99.90;;;;;;5109685;28;20044;-68
2021/12/15 05:30:25;;;;;;;76.93;38.50;;;10.30;99.90;;;;;;5110546;28;20058;-68
2021/12/15 05:32:51;;;;;;;72.93;37.63;;;10.20;99.90;;;;;;5131180;27;20073;-68
2021/12/15 05:35:22;;;;;;;81.00;38.15;;;10.20;99.90;;;;;;5107829;28;20048;-68
2021/12/15 05:37:52;;;;;;;77.13;38.38;;;10.20;99.90;;;;;;5077018;28;20059;-66
2021/12/15 05:40:18;;;;;;;74.17;37.53;;;10.30;99.90;;;;;;5109529;28;20062;-65
2021/12/15 05:42:44;;;;;;;76.30;37.42;;;10.30;99.90;;;;;;5108597;28;20290;-66
2021/12/15 05:45:10;;;;;;;76.43;36.95;;;10.30;99.90;;;;;;5128154;27;20100;-66
2021/12/15 05:47:36;;;;;;;82.25;38.67;;;10.20;99.90;;;;;;5106701;28;20056;-68
2021/12/15 05:50:07;;;;;;;76.60;38.55;;;10.20;99.90;;;;;;5108195;28;20052;-67
2021/12/15 05:52:33;;;;;;;75.72;37.65;;;10.20;99.90;;;;;;5108023;28;20044;-66
2021/12/15 05:54:59;;;;;;;77.80;39.65;;;10.20;99.90;;;;;;5107972;28;20063;-67
2021/12/15 05:57:26;;;;;;;82.22;40.15;;;10.20;99.90;;;;;;5126336;28;20043;-66
2021/12/15 05:59:52;;;;;;;76.38;38.17;;;10.20;99.90;;;;;;5112763;27;20092;-66
2021/12/15 06:02:17;;;;;;;72.03;36.70;;;10.20;99.90;;;;;;5108963;28;20479;-66
2021/12/15 06:04:43;;;;;;;74.03;37.13;;;10.30;99.90;;;;;;5107369;28;20047;-67
2021/12/15 06:07:10;;;;;;;72.57;35.58;;;10.20;99.90;;;;;;5126250;27;20075;-69
2021/12/15 06:09:35;;;;;;;73.30;37.30;;;10.30;99.90;;;;;;5103381;27;20047;-69
2021/12/15 06:12:02;;;;;;;78.50;37.75;;;10.20;99.90;;;;;;5123675;27;20043;-69
2021/12/15 06:14:30;;;;;;;67.03;36.45;;;10.30;99.90;;;;;;5138274;27;20043;-69
2021/12/15 06:16:59;;;;;;;78.82;37.65;;;10.30;99.90;;;;;;5136729;27;21069;-69
2021/12/15 06:19:25;;;;;;;72.13;38.47;;;10.20;99.90;;;;;;5115978;27;20356;-68
2021/12/15 06:21:51;;;;;;;78.82;37.50;;;10.30;99.90;;;;;;5120874;27;20066;-65
2021/12/15 06:24:17;;;;;;;70.85;36.50;;;10.30;99.90;;;;;;5107908;28;20046;-65
2021/12/15 06:26:43;;;;;;;73.90;37.90;;;10.20;99.90;;;;;;5123801;27;20066;-65
2021/12/15 06:29:08;;;;;;;80.10;39.22;;;10.20;99.90;;;;;;5128167;27;20055;-65
2021/12/15 06:31:35;;;;;;;75.10;36.97;;;10.30;99.90;;;;;;5131921;27;20368;-65
2021/12/15 06:34:01;;;;;;;73.13;36.35;;;10.30;99.90;;;;;;5135948;27;20088;-65
2021/12/15 06:36:30;;;;;;;72.95;37.33;;;10.20;99.90;;;;;;5133134;27;20055;-65
2021/12/15 06:38:56;;;;;;;68.07;33.25;;;10.20;99.90;;;;;;5118656;27;20043;-64
2021/12/15 06:41:23;;;;;;;84.00;40.28;;;10.30;99.90;;;;;;5111637;27;20055;-64
2021/12/15 06:43:54;;;;;;;78.10;39.60;;;10.20;99.90;;;;;;5119459;27;20043;-65
2021/12/15 07:00:13;;;;;;;76.32;37.50;;;10.30;99.90;;;;;;5096151;27;20047;-65
2021/12/15 07:02:41;;;;;;;80.20;40.47;;;10.20;99.90;;;;;;5118355;28;20052;-66
2021/12/15 07:05:08;;;;;;;75.22;39.03;;;10.20;99.90;;;;;;5119897;28;20086;-66
2021/12/15 07:07:39;;;;;;;72.70;37.92;;;10.20;99.90;;;;;;5092564;27;20066;-66
2021/12/15 07:10:07;;;;;;;84.75;39.33;;;10.20;99.90;;;;;;5126405;27;20320;-65
2021/12/15 07:12:33;;;;;;;84.15;42.88;;;10.20;99.90;;;;;;5110518;27;20238;-66
2021/12/15 07:14:59;;;;;;;80.07;37.83;;;10.20;99.90;;;;;;5108003;28;20078;-66
2021/12/15 07:17:25;;;;;;;75.53;38.15;;;10.20;99.90;;;;;;5094918;27;20046;-66
2021/12/15 07:22:33;;;;;;;76.35;37.38;;;10.20;99.90;;;;;;5087037;28;20127;-66
2021/12/15 07:25:00;;;;;;;74.68;37.53;;;10.20;99.90;;;;;;5090029;28;20039;-66
2021/12/15 07:27:27;;;;;;;70.53;37.10;;;10.20;99.90;;;;;;5106198;28;20081;-66
2021/12/15 07:29:53;;;;;;;70.20;36.17;;;10.30;99.90;;;;;;5083961;28;20562;-66
2021/12/15 07:32:18;;;;;;;69.03;36.85;;;10.20;99.90;;;;;;5087465;28;20040;-66
2021/12/15 07:34:44;;;;;;;74.18;36.22;;;10.20;99.90;;;;;;5113865;28;20107;-66
2021/12/15 07:37:10;;;;;;;67.03;34.05;;;10.20;99.90;;;;;;5086066;28;20067;-66
2021/12/15 07:39:37;;;;;;;69.90;36.40;;;10.20;99.90;;;;;;5102803;27;20131;-66
2021/12/15 07:42:10;;;;;;;69.45;34.88;;;10.20;99.90;;;;;;5097323;28;20071;-66
2021/12/15 07:44:37;;;;;;;67.60;34.47;;;10.20;99.90;;;;;;5064463;28;20433;-68
2021/12/15 07:47:04;;;;;;;66.75;35.28;;;10.20;99.90;;;;;;5094504;28;20313;-62
2021/12/15 07:49:31;;;;;;;68.18;34.42;;;10.20;99.90;;;;;;5063384;28;20052;-66
2021/12/15 07:52:03;;;;;;;68.03;36.30;;;10.20;99.90;;;;;;5096923;28;20047;-64
2021/12/15 07:54:32;;;;;;;66.68;33.88;;;10.20;99.90;;;;;;5087277;28;20142;-64
2021/12/15 07:56:58;;;;;;;67.10;35.03;;;10.20;99.90;;;;;;5095067;28;20048;-64
2021/12/15 07:59:25;;;;;;;62.17;31.65;;;10.20;99.90;;;;;;5107568;28;20050;-65
2021/12/15 08:01:51;;;;;;;63.03;33.33;;;10.20;99.90;;;;;;5099082;28;20728;-65
2021/12/15 08:04:18;;;;;;;61.58;33.65;;;10.30;99.90;;;;;;5071330;28;20043;-64
2021/12/15 08:06:46;;;;;;;61.72;33.13;;;10.20;99.90;;;;;;5092560;28;20052;-65
2021/12/15 08:09:12;;;;;;;58.38;31.23;;;10.30;99.90;;;;;;5070280;28;20140;-64
2021/12/15 08:11:40;;;;;;;61.05;31.17;;;10.30;99.90;;;;;;5099777;28;20040;-64
2021/12/15 08:14:06;;;;;;;62.72;31.42;;;10.20;99.90;;;;;;5109984;27;20047;-64
2021/12/15 08:16:32;;;;;;;56.25;30.83;;;10.30;99.90;;;;;;5097547;28;20048;-64
2021/12/15 08:18:58;;;;;;;62.35;32.03;;;10.30;99.90;;;;;;5074324;28;20039;-64
2021/12/15 08:21:24;;;;;;;52.25;29.63;;;10.20;99.90;;;;;;5094320;28;20060;-64
2021/12/15 08:23:50;;;;;;;60.97;31.33;;;10.30;99.90;;;;;;5087712;28;20063;-64
2021/12/15 08:26:16;;;;;;;58.72;31.55;;;10.30;99.90;;;;;;5099596;28;20058;-65
2021/12/15 08:28:41;;;;;;;57.60;29.17;;;10.30;99.90;;;;;;5078177;28;20048;-65
2021/12/15 08:31:07;;;;;;;56.72;31.23;;;10.30;99.90;;;;;;5096225;28;20056;-65
2021/12/15 08:33:34;;;;;;;54.58;29.92;;;10.30;99.90;;;;;;5085077;28;20509;-65
2021/12/15 08:36:09;;;;;;;54.20;29.73;;;10.20;99.90;;;;;;5095020;28;20040;-65
2021/12/15 08:38:38;;;;;;;54.10;29.98;;;10.20;99.90;;;;;;5097138;28;20047;-65
2021/12/15 08:41:10;;;;;;;55.15;29.77;;;10.30;99.90;;;;;;5086863;28;20052;-65
2021/12/15 08:43:36;;;;;;;54.30;30.17;;;10.30;99.90;;;;;;5086081;28;20448;-64
2021/12/15 08:46:13;;;;;;;58.35;30.08;;;10.30;99.90;;;;;;5096705;28;20070;-65
2021/12/15 08:48:41;;;;;;;56.10;30.17;;;10.30;99.90;;;;;;5078167;28;20060;-65
2021/12/15 08:51:09;;;;;;;58.65;28.63;;;10.30;99.90;;;;;;5090918;28;20063;-65
2021/12/15 08:53:37;;;;;;;55.63;28.75;;;10.30;99.90;;;;;;5077627;28;20052;-64
2021/12/15 08:56:04;;;;;;;53.78;29.35;;;10.30;99.90;;;;;;5096616;28;20050;-65
2021/12/15 08:58:29;;;;;;;52.83;29.75;;;10.30;99.90;;;;;;5089739;28;20083;-65
2021/12/15 09:00:57;;;;;;;54.10;31.50;;;10.40;99.90;;;;;;5098170;28;20036;-66
2021/12/15 09:03:25;;;;;;;53.60;27.35;;;10.30;99.90;;;;;;5067076;28;20044;-72
2021/12/15 09:05:53;;;;;;;55.47;30.00;;;10.30;99.90;;;;;;5099084;28;20052;-67
2021/12/15 09:08:21;;;;;;;53.20;28.20;;;10.30;99.90;;;;;;5081854;28;20044;-63
2021/12/15 09:10:47;;;;;;;56.25;29.52;;;10.30;99.90;;;;;;5100560;28;20321;-65
2021/12/15 09:13:14;;;;;;;55.53;28.98;;;10.30;99.90;;;;;;5071070;28;20052;-64
2021/12/15 09:15:41;;;;;;;53.92;26.98;;;10.30;99.90;;;;;;5086764;28;20139;-64
2021/12/15 09:18:07;;;;;;;50.13;28.13;;;10.40;99.90;;;;;;5065813;28;20146;-64
2021/12/15 09:20:35;;;;;;;49.78;28.67;;;10.40;99.90;;;;;;5100068;28;20111;-64
2021/12/15 09:23:06;;;;;;;50.47;27.15;;;10.40;99.90;;;;;;5091474;28;20087;-64
2021/12/15 09:25:32;;;;;;;46.38;27.50;;;10.40;99.90;;;;;;5102589;28;20044;-64
2021/12/15 09:27:58;;;;;;;54.25;28.05;;;10.40;99.90;;;;;;5090577;28;20074;-64
2021/12/15 09:30:27;;;;;;;45.05;26.92;;;10.40;99.90;;;;;;5087237;28;20063;-64
2021/12/15 09:32:53;;;;;;;47.60;26.98;;;10.40;99.90;;;;;;5093680;27;20048;-64
2021/12/15 09:35:20;;;;;;;53.80;26.73;;;10.40;99.90;;;;;;5091153;28;20050;-64
2021/12/15 09:37:47;;;;;;;48.60;27.55;;;10.50;99.90;;;;;;5091083;27;20048;-64
2021/12/15 09:40:14;;;;;;;46.28;25.65;;;10.40;99.90;;;;;;5081641;28;20067;-64
2021/12/15 09:42:40;;;;;;;47.70;25.60;;;10.50;99.90;;;;;;5090123;28;20085;-64
2021/12/15 09:45:24;;;;;;;45.83;26.15;;;10.40;99.90;;;;;;5083223;28;20028;-64
2021/12/15 10:07:03;;;;;;;47.10;26.08;;;10.50;99.90;;;;;;5097335;28;20047;-64
2021/12/15 10:17:49;;;;;;;45.17;24.73;;;10.50;99.90;;;;;;5102047;28;20066;-64
2021/12/15 10:20:23;;;;;;;40.88;24.10;;;10.50;99.90;;;;;;5083226;28;20547;-64
2021/12/15 10:22:55;;;;;;;46.63;26.10;;;10.60;99.90;;;;;;5088315;28;20044;-65
2021/12/15 10:25:26;;;;;;;45.17;23.83;;;10.60;99.90;;;;;;5098666;28;20367;-64
2021/12/15 10:28:08;;;;;;;44.53;24.02;;;10.60;99.90;;;;;;5090633;28;20054;-64
2021/12/15 10:30:39;;;;;;;36.45;21.67;;;10.60;99.90;;;;;;5099130;28;20055;-64
2021/12/15 10:33:21;;;;;;;35.70;21.77;;;10.60;99.90;;;;;;5083868;28;20133;-64
2021/12/15 10:35:50;;;;;;;34.67;21.80;;;10.60;99.90;;;;;;5071838;28;20047;-64
2021/12/15 10:38:20;;;;;;;41.85;22.70;;;10.70;99.90;;;;;;5086333;28;20130;-64
2021/12/15 10:41:00;;;;;;;37.60;22.27;;;10.70;99.90;;;;;;5077806;28;20077;-64
2021/12/15 10:43:40;;;;;;;37.55;20.83;;;10.70;99.90;;;;;;5078512;28;20510;-64
2021/12/15 10:46:08;;;;;;;;;;;10.70;99.90;;;;;;5083177;28;20048;-65
2021/12/15 10:48:47;;;;;;;40.78;21.92;;;10.70;99.90;;;;;;5090799;28;20015;-64
2021/12/15 10:51:21;;;;;;;35.60;20.17;;;10.70;99.90;;;;;;5090853;28;20075;-64
2021/12/15 10:53:48;;;;;;;38.30;21.85;;;10.70;99.90;;;;;;5066435;28;20060;-64
2021/12/15 10:56:18;;;;;;;37.47;21.48;;;10.60;99.90;;;;;;5089137;28;20052;-64
2021/12/15 10:58:51;;;;;;;40.17;22.23;;;10.70;99.90;;;;;;5092698;27;20622;-64
2021/12/15 11:01:31;;;;;;;37.38;20.55;;;10.70;99.90;;;;;;5096706;28;20044;-64
2021/12/15 11:04:00;;;;;;;;;;;10.70;99.90;;;;;;5099583;27;20059;-64
2021/12/15 11:06:32;;;;;;;38.47;21.13;;;10.70;99.90;;;;;;5099583;28;19932;-64
2021/12/15 11:09:11;;;;;;;35.17;21.65;;;10.70;99.90;;;;;;5093847;27;20058;-65
2021/12/15 11:11:37;;;;;;;34.23;20.07;;;10.80;99.90;;;;;;5104236;28;20059;-64
2021/12/15 11:14:23;;;;;;;31.10;19.02;;;10.80;99.90;;;;;;5091453;28;20152;-64
2021/12/15 11:17:04;;;;;;;32.72;20.17;;;10.80;99.90;;;;;;5102191;28;20043;-64
2021/12/15 11:19:51;;;;;;;37.50;20.45;;;10.90;99.90;;;;;;5086757;28;20470;-64
2021/12/15 11:22:45;;;;;;;33.70;19.98;;;10.90;99.90;;;;;;5094827;28;20044;-64
2021/12/15 11:25:13;;;;;;;34.80;19.10;;;10.80;99.90;;;;;;5066598;28;20420;-64
2021/12/15 11:27:39;;;;;;;31.00;19.50;;;10.80;99.90;;;;;;5098240;28;20288;-64
2021/12/15 11:30:10;;;;;;;31.88;18.30;;;10.90;99.90;;;;;;5072189;28;20047;-64
2021/12/15 11:32:43;;;;;;;35.47;19.95;;;10.80;99.90;;;;;;5100848;28;20065;-63
2021/12/15 11:35:15;;;;;;;32.67;18.02;;;10.80;99.90;;;;;;5097427;28;20055;-64
2021/12/15 11:37:54;;;;;;;34.90;19.15;;;10.90;99.90;;;;;;5112856;28;20602;-63
2021/12/15 11:40:35;;;;;;;34.93;18.63;;;10.90;99.90;;;;;;5090598;28;20048;-63
2021/12/15 11:43:02;;;;;;;31.00;18.55;;;10.90;99.90;;;;;;5082475;28;20100;-64
2021/12/15 11:45:29;;;;;;;27.77;18.20;;;10.80;99.90;;;;;;5084602;28;20059;-64
2021/12/15 11:48:20;;;;;;;32.58;17.88;;;10.90;99.90;;;;;;5105674;28;20608;-63
2021/12/15 11:50:48;;;;;;;28.60;17.60;;;10.90;99.90;;;;;;5102485;28;20051;-63
2021/12/15 11:53:34;;;;;;;29.55;17.33;;;10.80;99.90;;;;;;5092523;28;20432;-64
2021/12/15 11:56:21;;;;;;;26.77;16.73;;;10.80;99.90;;;;;;5069097;28;20075;-63
2021/12/15 11:58:51;;;;;;;25.95;14.77;;;10.80;99.90;;;;;;5086173;28;20040;-63
2021/12/15 12:01:36;;;;;;;25.65;14.25;;;10.90;99.90;;;;;;5084791;28;20043;-64
2021/12/15 12:04:24;;;;;;;22.60;13.02;;;10.90;99.90;;;;;;5089552;28;20515;-64
2021/12/15 12:06:54;;;;;;;25.35;13.52;;;10.90;99.90;;;;;;5102893;28;20039;-64
2021/12/15 12:09:21;;;;;;;22.42;13.68;;;10.90;99.90;;;;;;5083778;28;20047;-64
2021/12/15 12:11:54;;;;;;;21.05;12.50;;;10.90;99.90;;;;;;5094739;28;20197;-64
2021/12/15 12:14:42;;;;;;;24.08;13.35;;;10.90;99.90;;;;;;5101757;27;20043;-63
2021/12/15 12:17:15;;;;;;;23.63;12.75;;;11.00;99.90;;;;;;5098374;28;20043;-64
2021/12/15 12:19:43;;;;;;;22.92;14.50;;;11.00;99.90;;;;;;5107291;28;20119;-64
2021/12/15 12:22:11;;;;;;;28.88;14.57;;;10.90;99.90;;;;;;5098661;28;20075;-64
2021/12/15 12:24:38;;;;;;;27.70;15.32;;;10.80;99.90;;;;;;5059169;28;20048;-64
2021/12/15 12:27:05;;;;;;;28.60;17.30;;;10.80;99.90;;;;;;5094861;28;20032;-64
2021/12/15 12:29:32;;;;;;;30.10;16.25;;;10.70;99.90;;;;;;5079053;28;20318;-64
2021/12/15 12:31:58;;;;;;;31.48;16.45;;;10.70;99.90;;;;;;5095718;28;20425;-64
2021/12/15 12:34:23;;;;;;;32.05;17.60;;;10.80;99.90;;;;;;5071243;28;20275;-64
2021/12/15 12:36:50;;;;;;;27.85;16.58;;;10.80;99.90;;;;;;5088570;28;20112;-64
2021/12/15 12:39:21;;;;;;;28.20;16.75;;;10.80;99.90;;;;;;5075428;28;20048;-64
2021/12/15 12:41:49;;;;;;;27.20;15.57;;;10.90;99.90;;;;;;5080039;28;20485;-64
2021/12/15 12:44:20;;;;;;;25.25;14.77;;;10.90;99.90;;;;;;5097879;28;20175;-64
2021/12/15 12:47:00;;;;;;;25.40;16.05;;;10.90;99.90;;;;;;5093171;28;20052;-64
2021/12/15 13:00:28;;;;;;;25.70;14.27;;;10.90;99.90;;;;;;5066840;28;20052;-64
2021/12/15 13:03:05;;;;;;;21.25;12.85;;;10.90;99.90;;;;;;5094148;28;20056;-64
2021/12/15 13:05:38;;;;;;;19.20;12.70;;;10.90;99.90;;;;;;5070710;28;20113;-64
2021/12/15 13:08:08;;;;;;;19.67;11.75;;;10.90;99.90;;;;;;5099206;28;20064;-63
2021/12/15 13:10:52;;;;;;;25.10;12.38;;;10.90;99.90;;;;;;5068520;28;20514;-64
2021/12/15 13:13:28;;;;;;;20.60;12.50;;;10.90;99.90;;;;;;5087262;28;20048;-64
2021/12/15 13:16:04;;;;;;;19.85;11.40;;;10.80;99.90;;;;;;5099402;28;20052;-64
2021/12/15 13:18:48;;;;;;;20.42;11.90;;;10.90;99.90;;;;;;5094175;28;20055;-64
2021/12/15 13:21:17;;;;;;;21.58;11.65;;;10.80;99.90;;;;;;5116003;28;20048;-64
2021/12/15 13:23:50;;;;;;;18.90;10.95;;;10.80;99.90;;;;;;5090525;28;20051;-64
2021/12/15 13:29:35;;;;;;;19.52;12.00;;;10.80;99.90;;;;;;5092005;28;20140;-64
2021/12/15 13:32:02;;;;;;;17.33;10.90;;;10.70;99.90;;;;;;5083222;28;20064;-64
2021/12/15 13:34:37;;;;;;;19.63;10.02;;;10.70;99.90;;;;;;5078820;28;20563;-64
2021/12/15 13:37:04;;;;;;;16.20;10.63;;;10.70;99.90;;;;;;5081208;28;20102;-64
2021/12/15 13:39:48;;;;;;;18.88;10.90;;;10.70;99.90;;;;;;5086756;28;20047;-64
2021/12/15 13:42:41;;;;;;;19.13;8.82;;;10.60;99.90;;;;;;5083271;28;20037;-64
2021/12/15 13:45:28;;;;;;;15.50;7.53;;;10.60;99.90;;;;;;5100751;28;20093;-64
2021/12/15 13:47:54;;;;;;;11.43;6.72;;;10.50;99.90;;;;;;5073835;28;20570;-64
2021/12/15 13:50:23;;;;;;;11.52;5.75;;;10.50;99.90;;;;;;5104740;27;20496;-63
2021/12/15 13:53:03;;;;;;;13.95;6.20;;;10.50;99.90;;;;;;5082892;28;20033;-63
2021/12/15 13:55:35;;;;;;;10.73;6.30;;;10.50;99.90;;;;;;5097435;27;20055;-64
2021/12/15 13:58:08;;;;;;;11.70;5.47;;;10.50;99.90;;;;;;5083223;28;20043;-64
2021/12/15 14:00:44;;;;;;;12.25;5.22;;;10.50;99.90;;;;;;5070075;28;20062;-63
2021/12/15 14:03:26;;;;;;;8.75;5.07;;;10.40;99.90;;;;;;5079078;28;20101;-63
2021/12/15 14:06:04;;;;;;;11.48;5.25;;;10.50;99.90;;;;;;5054401;28;20049;-64
2021/12/15 14:08:38;;;;;;;10.73;5.63;;;10.50;99.90;;;;;;5062977;28;20524;-64
2021/12/15 14:11:32;;;;;;;12.30;5.15;;;10.40;99.90;;;;;;5058456;28;20060;-63
2021/12/15 14:14:05;;;;;;;12.57;5.95;;;10.40;99.90;;;;;;5033466;28;20149;-63